sensor_id;sensor_type;location;lat;lon;timestamp;temperature;humidity
22321;DHT22;11328;53.928;18.522;2023-02-13T00:00:51;5.70;99.90
22321;DHT22;11328;53.928;18.522;2023-02-13T00:03:19;5.70;99.90
22321;DHT22;11328;53.928;18.522;2023-02-13T00:05:46;5.70;99.90
22321;DHT22;11328;53.928;18.522;2023-02-13T00:08:13;5.70;99.90
22321;DHT22;11328;53.928;18.522;2023-02-13T00:10:40;5.60;99.90
22321;DHT22;11328;53.928;18.522;2023-02-13T00:13:07;5.60;99.90
22321;DHT22;11328;53.928;18.522;2023-02-13T00:15:34;5.60;99.90
22321;DHT22;11328;53.928;18.522;2023-02-13T00:18:02;5.70;99.90
22321;DHT22;11328;53.928;18.522;2023-02-13T00:20:30;5.70;99.90
22321;DHT22;11328;53.928;18.522;2023-02-13T00:22:58;5.70;99.90
22321;DHT22;11328;53.928;18.522;2023-02-13T00:25:25;5.70;99.90
22321;DHT22;11328;53.928;18.522;2023-02-13T00:27:52;5.70;99.90
22321;DHT22;11328;53.928;18.522;2023-02-13T00:30:20;5.70;99.90
22321;DHT22;11328;53.928;18.522;2023-02-13T00:32:48;5.80;99.90
22321;DHT22;11328;53.928;18.522;2023-02-13T00:35:15;5.80;99.90
22321;DHT22;11328;53.928;18.522;2023-02-13T00:37:42;5.70;99.90
22321;DHT22;11328;53.928;18.522;2023-02-13T00:40:10;5.80;99.90
22321;DHT22;11328;53.928;18.522;2023-02-13T00:42:37;5.70;99.90
22321;DHT22;11328;53.928;18.522;2023-02-13T00:45:04;5.70;99.90
22321;DHT22;11328;53.928;18.522;2023-02-13T00:47:32;5.70;99.90
22321;DHT22;11328;53.928;18.522;2023-02-13T00:49:59;5.70;99.90
22321;DHT22;11328;53.928;18.522;2023-02-13T00:52:26;5.70;99.90
22321;DHT22;11328;53.928;18.522;2023-02-13T00:54:53;5.80;99.90
22321;DHT22;11328;53.928;18.522;2023-02-13T00:57:20;5.70;99.90
22321;DHT22;11328;53.928;18.522;2023-02-13T00:59:47;5.70;99.90
22321;DHT22;11328;53.928;18.522;2023-02-13T01:02:16;5.70;99.90
22321;DHT22;11328;53.928;18.522;2023-02-13T01:04:43;5.70;99.90
22321;DHT22;11328;53.928;18.522;2023-02-13T01:07:11;5.80;99.90
22321;DHT22;11328;53.928;18.522;2023-02-13T01:09:38;5.80;99.90
22321;DHT22;11328;53.928;18.522;2023-02-13T01:12:05;5.80;99.90
22321;DHT22;11328;53.928;18.522;2023-02-13T01:14:32;5.80;99.90
22321;DHT22;11328;53.928;18.522;2023-02-13T01:17:00;5.80;99.90
22321;DHT22;11328;53.928;18.522;2023-02-13T01:19:27;5.90;99.90
22321;DHT22;11328;53.928;18.522;2023-02-13T01:21:54;5.90;99.90
22321;DHT22;11328;53.928;18.522;2023-02-13T01:24:21;6.00;99.90
22321;DHT22;11328;53.928;18.522;2023-02-13T01:26:48;6.00;99.90
22321;DHT22;11328;53.928;18.522;2023-02-13T01:29:15;6.00;99.90
22321;DHT22;11328;53.928;18.522;2023-02-13T01:31:42;6.10;99.90
22321;DHT22;11328;53.928;18.522;2023-02-13T01:34:09;6.00;99.90
22321;DHT22;11328;53.928;18.522;2023-02-13T01:36:36;6.10;99.90
22321;DHT22;11328;53.928;18.522;2023-02-13T01:39:03;6.00;99.90
22321;DHT22;11328;53.928;18.522;2023-02-13T01:41:30;6.00;99.90
22321;DHT22;11328;53.928;18.522;2023-02-13T01:43:59;6.00;99.90
22321;DHT22;11328;53.928;18.522;2023-02-13T01:46:29;6.00;99.90
22321;DHT22;11328;53.928;18.522;2023-02-13T01:49:22;6.10;99.90
22321;DHT22;11328;53.928;18.522;2023-02-13T01:51:53;6.10;99.90
22321;DHT22;11328;53.928;18.522;2023-02-13T01:54:26;6.00;99.90
22321;DHT22;11328;53.928;18.522;2023-02-13T01:57:00;6.00;99.90
22321;DHT22;11328;53.928;18.522;2023-02-13T01:59:42;6.00;99.90
22321;DHT22;11328;53.928;18.522;2023-02-13T02:02:14;6.00;99.90
22321;DHT22;11328;53.928;18.522;2023-02-13T02:04:43;6.10;99.90
22321;DHT22;11328;53.928;18.522;2023-02-13T02:07:26;6.00;99.90
22321;DHT22;11328;53.928;18.522;2023-02-13T02:09:59;6.00;99.90
22321;DHT22;11328;53.928;18.522;2023-02-13T02:12:49;6.00;99.90
22321;DHT22;11328;53.928;18.522;2023-02-13T02:15:18;6.00;99.90
22321;DHT22;11328;53.928;18.522;2023-02-13T02:17:45;6.10;99.90
22321;DHT22;11328;53.928;18.522;2023-02-13T02:26:58;6.10;99.90
22321;DHT22;11328;53.928;18.522;2023-02-13T02:39:37;6.10;99.90
22321;DHT22;11328;53.928;18.522;2023-02-13T02:45:34;6.00;99.90
22321;DHT22;11328;53.928;18.522;2023-02-13T02:48:10;6.00;99.90
22321;DHT22;11328;53.928;18.522;2023-02-13T02:51:37;6.10;99.90
22321;DHT22;11328;53.928;18.522;2023-02-13T02:54:20;6.10;99.90
22321;DHT22;11328;53.928;18.522;2023-02-13T02:57:15;6.10;99.90
22321;DHT22;11328;53.928;18.522;2023-02-13T03:00:15;6.20;99.90
22321;DHT22;11328;53.928;18.522;2023-02-13T03:03:05;6.30;99.90
22321;DHT22;11328;53.928;18.522;2023-02-13T03:06:00;6.30;99.90
22321;DHT22;11328;53.928;18.522;2023-02-13T03:08:46;6.20;99.90
22321;DHT22;11328;53.928;18.522;2023-02-13T03:11:38;6.20;99.90
22321;DHT22;11328;53.928;18.522;2023-02-13T03:14:27;6.20;99.90
22321;DHT22;11328;53.928;18.522;2023-02-13T03:16:57;6.30;99.90
22321;DHT22;11328;53.928;18.522;2023-02-13T03:35:39;6.20;99.90
22321;DHT22;11328;53.928;18.522;2023-02-13T03:41:49;6.20;99.90
22321;DHT22;11328;53.928;18.522;2023-02-13T03:47:42;6.40;99.90
22321;DHT22;11328;53.928;18.522;2023-02-13T03:50:12;6.30;99.90
22321;DHT22;11328;53.928;18.522;2023-02-13T03:52:55;6.30;99.90
22321;DHT22;11328;53.928;18.522;2023-02-13T03:55:35;6.30;99.90
22321;DHT22;11328;53.928;18.522;2023-02-13T03:58:34;6.30;99.90
22321;DHT22;11328;53.928;18.522;2023-02-13T04:01:25;6.30;99.90
22321;DHT22;11328;53.928;18.522;2023-02-13T04:09:33;6.30;99.90
22321;DHT22;11328;53.928;18.522;2023-02-13T04:14:42;6.20;99.90
22321;DHT22;11328;53.928;18.522;2023-02-13T04:17:21;6.20;99.90
22321;DHT22;11328;53.928;18.522;2023-02-13T04:19:52;6.20;99.90
22321;DHT22;11328;53.928;18.522;2023-02-13T04:22:20;6.20;99.90
22321;DHT22;11328;53.928;18.522;2023-02-13T04:24:47;6.20;99.90
22321;DHT22;11328;53.928;18.522;2023-02-13T04:27:16;6.20;99.90
22321;DHT22;11328;53.928;18.522;2023-02-13T04:29:44;6.30;99.90
22321;DHT22;11328;53.928;18.522;2023-02-13T04:32:11;6.20;99.90
22321;DHT22;11328;53.928;18.522;2023-02-13T04:34:39;6.20;99.90
22321;DHT22;11328;53.928;18.522;2023-02-13T04:37:07;6.30;99.90
22321;DHT22;11328;53.928;18.522;2023-02-13T04:39:34;6.20;99.90
22321;DHT22;11328;53.928;18.522;2023-02-13T04:42:01;6.20;99.90
22321;DHT22;11328;53.928;18.522;2023-02-13T04:44:28;6.20;99.90
22321;DHT22;11328;53.928;18.522;2023-02-13T04:46:55;6.20;99.90
22321;DHT22;11328;53.928;18.522;2023-02-13T04:49:22;6.20;99.90
22321;DHT22;11328;53.928;18.522;2023-02-13T04:51:50;6.20;99.90
22321;DHT22;11328;53.928;18.522;2023-02-13T04:54:17;6.20;99.90
22321;DHT22;11328;53.928;18.522;2023-02-13T04:56:44;6.20;99.90
22321;DHT22;11328;53.928;18.522;2023-02-13T04:59:11;6.20;99.90
22321;DHT22;11328;53.928;18.522;2023-02-13T05:01:38;6.20;99.90
22321;DHT22;11328;53.928;18.522;2023-02-13T05:04:06;6.20;99.90
22321;DHT22;11328;53.928;18.522;2023-02-13T05:06:32;6.10;99.90
22321;DHT22;11328;53.928;18.522;2023-02-13T05:09:00;6.20;99.90
22321;DHT22;11328;53.928;18.522;2023-02-13T05:11:27;6.20;99.90
22321;DHT22;11328;53.928;18.522;2023-02-13T05:13:54;6.20;99.90
22321;DHT22;11328;53.928;18.522;2023-02-13T05:16:21;6.20;99.90
22321;DHT22;11328;53.928;18.522;2023-02-13T05:18:48;6.20;99.90
22321;DHT22;11328;53.928;18.522;2023-02-13T05:21:20;6.20;99.90
22321;DHT22;11328;53.928;18.522;2023-02-13T05:24:06;6.10;99.90
22321;DHT22;11328;53.928;18.522;2023-02-13T05:26:34;6.10;99.90
22321;DHT22;11328;53.928;18.522;2023-02-13T05:29:01;6.20;99.90
22321;DHT22;11328;53.928;18.522;2023-02-13T05:31:51;6.10;99.90
22321;DHT22;11328;53.928;18.522;2023-02-13T05:34:21;6.10;99.90
22321;DHT22;11328;53.928;18.522;2023-02-13T05:36:50;6.10;99.90
22321;DHT22;11328;53.928;18.522;2023-02-13T05:39:19;6.20;99.90
22321;DHT22;11328;53.928;18.522;2023-02-13T05:41:47;6.20;99.90
22321;DHT22;11328;53.928;18.522;2023-02-13T05:44:15;6.20;99.90
22321;DHT22;11328;53.928;18.522;2023-02-13T05:46:43;6.20;99.90
22321;DHT22;11328;53.928;18.522;2023-02-13T05:49:12;6.20;99.90
22321;DHT22;11328;53.928;18.522;2023-02-13T05:51:41;6.20;99.90
22321;DHT22;11328;53.928;18.522;2023-02-13T05:54:09;6.20;99.90
22321;DHT22;11328;53.928;18.522;2023-02-13T05:56:36;6.20;99.90
22321;DHT22;11328;53.928;18.522;2023-02-13T05:59:03;6.10;99.90
22321;DHT22;11328;53.928;18.522;2023-02-13T06:01:30;6.20;99.90
22321;DHT22;11328;53.928;18.522;2023-02-13T06:03:57;6.10;99.90
22321;DHT22;11328;53.928;18.522;2023-02-13T06:06:28;6.20;99.90
22321;DHT22;11328;53.928;18.522;2023-02-13T06:08:55;6.20;99.90
22321;DHT22;11328;53.928;18.522;2023-02-13T06:11:22;6.10;99.90
22321;DHT22;11328;53.928;18.522;2023-02-13T06:13:50;6.20;99.90
22321;DHT22;11328;53.928;18.522;2023-02-13T06:16:17;6.20;99.90
22321;DHT22;11328;53.928;18.522;2023-02-13T06:18:44;6.10;99.90
22321;DHT22;11328;53.928;18.522;2023-02-13T06:21:12;6.10;99.90
22321;DHT22;11328;53.928;18.522;2023-02-13T06:23:39;6.10;99.90
22321;DHT22;11328;53.928;18.522;2023-02-13T06:26:08;6.10;99.90
22321;DHT22;11328;53.928;18.522;2023-02-13T06:28:35;6.20;99.90
22321;DHT22;11328;53.928;18.522;2023-02-13T06:31:03;6.20;99.90
22321;DHT22;11328;53.928;18.522;2023-02-13T06:33:30;6.30;99.90
22321;DHT22;11328;53.928;18.522;2023-02-13T06:35:57;6.30;99.90
22321;DHT22;11328;53.928;18.522;2023-02-13T06:38:25;6.30;99.90
22321;DHT22;11328;53.928;18.522;2023-02-13T06:40:52;6.30;99.90
22321;DHT22;11328;53.928;18.522;2023-02-13T06:43:19;6.40;99.90
22321;DHT22;11328;53.928;18.522;2023-02-13T06:45:46;6.30;99.90
22321;DHT22;11328;53.928;18.522;2023-02-13T06:48:13;6.30;99.90
22321;DHT22;11328;53.928;18.522;2023-02-13T06:50:40;6.20;99.90
22321;DHT22;11328;53.928;18.522;2023-02-13T06:53:08;6.20;99.90
22321;DHT22;11328;53.928;18.522;2023-02-13T06:55:35;6.20;99.90
22321;DHT22;11328;53.928;18.522;2023-02-13T06:58:05;6.20;99.90
22321;DHT22;11328;53.928;18.522;2023-02-13T07:00:32;6.20;99.90
22321;DHT22;11328;53.928;18.522;2023-02-13T07:03:04;6.20;99.90
22321;DHT22;11328;53.928;18.522;2023-02-13T07:05:32;6.20;99.90
22321;DHT22;11328;53.928;18.522;2023-02-13T07:07:59;6.20;99.90
22321;DHT22;11328;53.928;18.522;2023-02-13T07:10:26;6.20;99.90
22321;DHT22;11328;53.928;18.522;2023-02-13T07:12:53;6.10;99.90
22321;DHT22;11328;53.928;18.522;2023-02-13T07:15:32;6.30;99.90
22321;DHT22;11328;53.928;18.522;2023-02-13T07:18:00;6.30;99.90
22321;DHT22;11328;53.928;18.522;2023-02-13T07:20:28;6.30;99.90
22321;DHT22;11328;53.928;18.522;2023-02-13T07:23:00;6.30;99.90
22321;DHT22;11328;53.928;18.522;2023-02-13T07:25:29;6.30;99.90
22321;DHT22;11328;53.928;18.522;2023-02-13T07:28:04;6.40;99.90
22321;DHT22;11328;53.928;18.522;2023-02-13T07:30:33;6.40;99.90
22321;DHT22;11328;53.928;18.522;2023-02-13T07:33:01;6.30;99.90
22321;DHT22;11328;53.928;18.522;2023-02-13T07:35:30;6.40;99.90
22321;DHT22;11328;53.928;18.522;2023-02-13T07:37:58;6.30;99.90
22321;DHT22;11328;53.928;18.522;2023-02-13T07:40:26;6.40;99.90
22321;DHT22;11328;53.928;18.522;2023-02-13T07:42:54;6.40;99.90
22321;DHT22;11328;53.928;18.522;2023-02-13T07:45:22;6.30;99.90
22321;DHT22;11328;53.928;18.522;2023-02-13T07:47:49;6.30;99.90
22321;DHT22;11328;53.928;18.522;2023-02-13T07:50:16;6.30;99.90
22321;DHT22;11328;53.928;18.522;2023-02-13T07:52:43;6.30;99.90
22321;DHT22;11328;53.928;18.522;2023-02-13T07:55:18;6.40;99.90
22321;DHT22;11328;53.928;18.522;2023-02-13T07:57:45;6.30;99.90
22321;DHT22;11328;53.928;18.522;2023-02-13T08:00:13;6.50;99.90
22321;DHT22;11328;53.928;18.522;2023-02-13T08:02:41;6.50;99.90
22321;DHT22;11328;53.928;18.522;2023-02-13T08:05:08;6.50;99.90
22321;DHT22;11328;53.928;18.522;2023-02-13T08:07:36;6.50;99.90
22321;DHT22;11328;53.928;18.522;2023-02-13T08:10:06;6.60;99.90
22321;DHT22;11328;53.928;18.522;2023-02-13T08:12:53;6.60;99.90
22321;DHT22;11328;53.928;18.522;2023-02-13T08:15:21;6.60;99.90
22321;DHT22;11328;53.928;18.522;2023-02-13T08:17:49;6.50;99.90
22321;DHT22;11328;53.928;18.522;2023-02-13T08:20:16;6.50;99.90
22321;DHT22;11328;53.928;18.522;2023-02-13T08:22:43;6.50;99.90
22321;DHT22;11328;53.928;18.522;2023-02-13T08:25:11;6.50;99.90
22321;DHT22;11328;53.928;18.522;2023-02-13T08:27:39;6.50;99.90
22321;DHT22;11328;53.928;18.522;2023-02-13T08:30:07;6.60;99.90
22321;DHT22;11328;53.928;18.522;2023-02-13T08:32:35;6.60;99.90
22321;DHT22;11328;53.928;18.522;2023-02-13T08:35:19;6.60;99.90
22321;DHT22;11328;53.928;18.522;2023-02-13T08:37:46;6.60;99.90
22321;DHT22;11328;53.928;18.522;2023-02-13T08:40:13;6.60;99.90
22321;DHT22;11328;53.928;18.522;2023-02-13T08:42:40;6.70;99.90
22321;DHT22;11328;53.928;18.522;2023-02-13T08:45:08;6.70;99.90
22321;DHT22;11328;53.928;18.522;2023-02-13T08:47:37;6.70;99.90
22321;DHT22;11328;53.928;18.522;2023-02-13T08:50:06;6.70;99.90
22321;DHT22;11328;53.928;18.522;2023-02-13T08:52:34;6.80;99.90
22321;DHT22;11328;53.928;18.522;2023-02-13T08:55:01;6.70;99.90
22321;DHT22;11328;53.928;18.522;2023-02-13T08:57:29;6.70;99.90
22321;DHT22;11328;53.928;18.522;2023-02-13T08:59:57;6.70;99.90
22321;DHT22;11328;53.928;18.522;2023-02-13T09:02:25;6.80;99.90
22321;DHT22;11328;53.928;18.522;2023-02-13T09:04:52;6.90;99.90
22321;DHT22;11328;53.928;18.522;2023-02-13T09:07:19;6.90;99.90
22321;DHT22;11328;53.928;18.522;2023-02-13T09:09:46;6.90;99.90
22321;DHT22;11328;53.928;18.522;2023-02-13T09:12:13;7.00;99.90
22321;DHT22;11328;53.928;18.522;2023-02-13T09:14:40;7.00;99.90
22321;DHT22;11328;53.928;18.522;2023-02-13T09:17:07;7.10;99.90
22321;DHT22;11328;53.928;18.522;2023-02-13T09:19:35;7.10;99.90
22321;DHT22;11328;53.928;18.522;2023-02-13T09:22:03;7.20;99.90
22321;DHT22;11328;53.928;18.522;2023-02-13T09:24:30;7.20;99.90
22321;DHT22;11328;53.928;18.522;2023-02-13T09:26:57;7.20;99.90
22321;DHT22;11328;53.928;18.522;2023-02-13T09:29:24;7.30;99.90
22321;DHT22;11328;53.928;18.522;2023-02-13T09:31:51;7.40;99.90
22321;DHT22;11328;53.928;18.522;2023-02-13T09:34:18;7.40;99.90
22321;DHT22;11328;53.928;18.522;2023-02-13T09:36:45;7.50;99.90
22321;DHT22;11328;53.928;18.522;2023-02-13T09:39:17;7.50;99.90
22321;DHT22;11328;53.928;18.522;2023-02-13T09:41:47;7.60;99.90
22321;DHT22;11328;53.928;18.522;2023-02-13T09:44:41;7.60;99.90
22321;DHT22;11328;53.928;18.522;2023-02-13T09:47:42;7.80;99.90
22321;DHT22;11328;53.928;18.522;2023-02-13T09:50:17;7.70;99.90
22321;DHT22;11328;53.928;18.522;2023-02-13T09:52:54;7.80;99.90
22321;DHT22;11328;53.928;18.522;2023-02-13T09:56:10;7.90;99.90
22321;DHT22;11328;53.928;18.522;2023-02-13T10:01:22;8.10;99.90
22321;DHT22;11328;53.928;18.522;2023-02-13T10:07:21;8.00;99.90
22321;DHT22;11328;53.928;18.522;2023-02-13T10:18:27;8.00;99.90
22321;DHT22;11328;53.928;18.522;2023-02-13T10:21:03;8.00;99.90
22321;DHT22;11328;53.928;18.522;2023-02-13T10:23:32;8.10;99.90
22321;DHT22;11328;53.928;18.522;2023-02-13T10:26:15;8.00;99.90
22321;DHT22;11328;53.928;18.522;2023-02-13T10:28:59;8.00;99.90
22321;DHT22;11328;53.928;18.522;2023-02-13T10:31:52;8.00;99.90
22321;DHT22;11328;53.928;18.522;2023-02-13T10:34:24;8.00;99.90
22321;DHT22;11328;53.928;18.522;2023-02-13T10:36:56;8.10;99.90
22321;DHT22;11328;53.928;18.522;2023-02-13T10:39:26;8.10;99.90
22321;DHT22;11328;53.928;18.522;2023-02-13T10:44:54;8.40;99.90
22321;DHT22;11328;53.928;18.522;2023-02-13T10:51:20;8.30;99.90
22321;DHT22;11328;53.928;18.522;2023-02-13T10:59:43;8.30;99.90
22321;DHT22;11328;53.928;18.522;2023-02-13T11:02:30;8.20;99.90
22321;DHT22;11328;53.928;18.522;2023-02-13T11:07:52;8.40;99.90
22321;DHT22;11328;53.928;18.522;2023-02-13T11:10:22;8.40;99.90
22321;DHT22;11328;53.928;18.522;2023-02-13T11:12:51;8.40;99.90
22321;DHT22;11328;53.928;18.522;2023-02-13T11:15:31;8.40;99.90
22321;DHT22;11328;53.928;18.522;2023-02-13T11:18:19;8.50;99.90
22321;DHT22;11328;53.928;18.522;2023-02-13T11:21:43;8.50;99.90
22321;DHT22;11328;53.928;18.522;2023-02-13T11:23:51;8.60;99.90
22321;DHT22;11328;53.928;18.522;2023-02-13T11:26:39;8.70;99.90
22321;DHT22;11328;53.928;18.522;2023-02-13T11:29:19;8.80;99.90
22321;DHT22;11328;53.928;18.522;2023-02-13T11:34:39;8.70;99.90
22321;DHT22;11328;53.928;18.522;2023-02-13T11:39:47;8.70;99.90
22321;DHT22;11328;53.928;18.522;2023-02-13T11:47:38;8.80;99.90
22321;DHT22;11328;53.928;18.522;2023-02-13T11:50:30;8.80;99.90
22321;DHT22;11328;53.928;18.522;2023-02-13T11:53:06;8.70;99.90
22321;DHT22;11328;53.928;18.522;2023-02-13T11:58:38;8.70;99.90
22321;DHT22;11328;53.928;18.522;2023-02-13T12:04:03;8.90;99.90
22321;DHT22;11328;53.928;18.522;2023-02-13T12:06:33;8.80;99.90
22321;DHT22;11328;53.928;18.522;2023-02-13T12:09:13;8.80;99.90
22321;DHT22;11328;53.928;18.522;2023-02-13T12:11:46;8.70;99.90
22321;DHT22;11328;53.928;18.522;2023-02-13T12:14:26;8.70;99.90
22321;DHT22;11328;53.928;18.522;2023-02-13T12:16:59;8.70;99.90
22321;DHT22;11328;53.928;18.522;2023-02-13T12:19:47;8.70;99.90
22321;DHT22;11328;53.928;18.522;2023-02-13T12:22:24;8.80;99.90
22321;DHT22;11328;53.928;18.522;2023-02-13T12:28:12;8.70;99.90
22321;DHT22;11328;53.928;18.522;2023-02-13T12:34:05;8.60;99.90
22321;DHT22;11328;53.928;18.522;2023-02-13T12:45:38;8.70;99.90
22321;DHT22;11328;53.928;18.522;2023-02-13T12:48:39;8.70;99.90
22321;DHT22;11328;53.928;18.522;2023-02-13T13:00:10;8.50;99.90
22321;DHT22;11328;53.928;18.522;2023-02-13T13:17:37;8.50;99.90
22321;DHT22;11328;53.928;18.522;2023-02-13T13:23:14;8.40;99.90
22321;DHT22;11328;53.928;18.522;2023-02-13T13:25:59;8.40;99.90
22321;DHT22;11328;53.928;18.522;2023-02-13T13:28:38;8.40;99.90
22321;DHT22;11328;53.928;18.522;2023-02-13T13:31:09;8.40;99.90
22321;DHT22;11328;53.928;18.522;2023-02-13T13:33:42;8.50;99.90
22321;DHT22;11328;53.928;18.522;2023-02-13T13:36:19;8.40;99.90
22321;DHT22;11328;53.928;18.522;2023-02-13T13:42:23;8.40;99.90
22321;DHT22;11328;53.928;18.522;2023-02-13T13:50:28;8.20;99.90
22321;DHT22;11328;53.928;18.522;2023-02-13T13:53:07;8.20;99.90
22321;DHT22;11328;53.928;18.522;2023-02-13T13:58:25;8.10;99.90
22321;DHT22;11328;53.928;18.522;2023-02-13T14:03:43;8.10;99.90
22321;DHT22;11328;53.928;18.522;2023-02-13T14:06:18;8.10;99.90
22321;DHT22;11328;53.928;18.522;2023-02-13T14:11:34;8.10;99.90
22321;DHT22;11328;53.928;18.522;2023-02-13T14:16:58;8.10;99.90
22321;DHT22;11328;53.928;18.522;2023-02-13T14:19:35;8.10;99.90
22321;DHT22;11328;53.928;18.522;2023-02-13T14:27:31;7.90;99.90
22321;DHT22;11328;53.928;18.522;2023-02-13T14:30:01;7.80;99.90
22321;DHT22;11328;53.928;18.522;2023-02-13T14:32:34;7.80;99.90
22321;DHT22;11328;53.928;18.522;2023-02-13T14:35:25;7.80;99.90
22321;DHT22;11328;53.928;18.522;2023-02-13T14:38:00;7.80;99.90
22321;DHT22;11328;53.928;18.522;2023-02-13T14:40:49;7.60;99.90
22321;DHT22;11328;53.928;18.522;2023-02-13T14:46:08;7.70;99.90
22321;DHT22;11328;53.928;18.522;2023-02-13T14:49:32;7.70;99.90
22321;DHT22;11328;53.928;18.522;2023-02-13T14:52:04;7.70;99.90
22321;DHT22;11328;53.928;18.522;2023-02-13T14:54:35;7.50;99.90
22321;DHT22;11328;53.928;18.522;2023-02-13T14:57:42;7.60;99.90
22321;DHT22;11328;53.928;18.522;2023-02-13T15:03:33;7.50;99.90
22321;DHT22;11328;53.928;18.522;2023-02-13T15:06:26;7.50;99.90
22321;DHT22;11328;53.928;18.522;2023-02-13T15:09:00;7.50;99.90
22321;DHT22;11328;53.928;18.522;2023-02-13T15:11:40;7.50;99.90
22321;DHT22;11328;53.928;18.522;2023-02-13T15:16:53;7.40;99.90
22321;DHT22;11328;53.928;18.522;2023-02-13T15:19:25;7.30;99.90
22321;DHT22;11328;53.928;18.522;2023-02-13T15:21:58;7.20;99.90
22321;DHT22;11328;53.928;18.522;2023-02-13T15:24:42;7.20;99.90
22321;DHT22;11328;53.928;18.522;2023-02-13T15:27:18;7.20;99.90
22321;DHT22;11328;53.928;18.522;2023-02-13T15:29:58;7.20;99.90
22321;DHT22;11328;53.928;18.522;2023-02-13T15:32:41;7.20;99.90
22321;DHT22;11328;53.928;18.522;2023-02-13T15:35:30;7.30;99.90
22321;DHT22;11328;53.928;18.522;2023-02-13T15:38:15;7.20;99.90
22321;DHT22;11328;53.928;18.522;2023-02-13T15:41:01;7.20;99.90
22321;DHT22;11328;53.928;18.522;2023-02-13T15:43:47;7.30;99.90
22321;DHT22;11328;53.928;18.522;2023-02-13T15:46:34;7.20;99.90
22321;DHT22;11328;53.928;18.522;2023-02-13T15:49:11;7.20;99.90
22321;DHT22;11328;53.928;18.522;2023-02-13T15:51:42;7.20;99.90
22321;DHT22;11328;53.928;18.522;2023-02-13T15:54:30;7.20;99.90
22321;DHT22;11328;53.928;18.522;2023-02-13T15:57:04;7.20;99.90
22321;DHT22;11328;53.928;18.522;2023-02-13T15:59:37;7.10;99.90
22321;DHT22;11328;53.928;18.522;2023-02-13T16:02:19;7.10;99.90
22321;DHT22;11328;53.928;18.522;2023-02-13T16:04:51;7.10;99.90
22321;DHT22;11328;53.928;18.522;2023-02-13T16:07:20;7.20;99.90
22321;DHT22;11328;53.928;18.522;2023-02-13T16:09:47;7.20;99.90
22321;DHT22;11328;53.928;18.522;2023-02-13T16:12:26;7.20;99.90
22321;DHT22;11328;53.928;18.522;2023-02-13T16:15:02;7.20;99.90
22321;DHT22;11328;53.928;18.522;2023-02-13T16:17:34;7.10;99.90
22321;DHT22;11328;53.928;18.522;2023-02-13T16:22:47;7.20;99.90
22321;DHT22;11328;53.928;18.522;2023-02-13T16:25:25;7.20;99.90
22321;DHT22;11328;53.928;18.522;2023-02-13T16:28:01;7.10;99.90
22321;DHT22;11328;53.928;18.522;2023-02-13T16:30:40;7.00;99.90
22321;DHT22;11328;53.928;18.522;2023-02-13T16:35:46;7.00;99.90
22321;DHT22;11328;53.928;18.522;2023-02-13T16:38:37;7.00;99.90
22321;DHT22;11328;53.928;18.522;2023-02-13T16:47:03;6.90;99.90
22321;DHT22;11328;53.928;18.522;2023-02-13T16:49:35;6.90;99.90
22321;DHT22;11328;53.928;18.522;2023-02-13T16:52:19;6.80;99.90
22321;DHT22;11328;53.928;18.522;2023-02-13T16:54:58;6.80;99.90
22321;DHT22;11328;53.928;18.522;2023-02-13T16:57:30;6.70;99.90
22321;DHT22;11328;53.928;18.522;2023-02-13T17:00:00;6.50;99.90
22321;DHT22;11328;53.928;18.522;2023-02-13T17:02:39;6.40;99.90
22321;DHT22;11328;53.928;18.522;2023-02-13T17:07:37;6.30;99.90
22321;DHT22;11328;53.928;18.522;2023-02-13T17:12:55;6.30;99.90
22321;DHT22;11328;53.928;18.522;2023-02-13T17:15:26;6.20;99.90
22321;DHT22;11328;53.928;18.522;2023-02-13T17:17:55;6.20;99.90
22321;DHT22;11328;53.928;18.522;2023-02-13T17:20:34;6.00;99.90
22321;DHT22;11328;53.928;18.522;2023-02-13T17:23:05;6.00;99.90
22321;DHT22;11328;53.928;18.522;2023-02-13T17:25:36;5.90;99.90
22321;DHT22;11328;53.928;18.522;2023-02-13T17:28:15;5.90;99.90
22321;DHT22;11328;53.928;18.522;2023-02-13T17:30:49;5.90;99.90
22321;DHT22;11328;53.928;18.522;2023-02-13T17:33:24;5.70;99.90
22321;DHT22;11328;53.928;18.522;2023-02-13T17:35:52;5.70;99.90
22321;DHT22;11328;53.928;18.522;2023-02-13T17:38:20;5.70;99.90
22321;DHT22;11328;53.928;18.522;2023-02-13T17:40:48;5.70;99.90
22321;DHT22;11328;53.928;18.522;2023-02-13T17:43:17;5.70;99.90
22321;DHT22;11328;53.928;18.522;2023-02-13T17:45:46;5.70;99.90
22321;DHT22;11328;53.928;18.522;2023-02-13T17:48:15;5.50;99.90
22321;DHT22;11328;53.928;18.522;2023-02-13T17:50:43;5.40;99.90
22321;DHT22;11328;53.928;18.522;2023-02-13T17:53:28;5.40;99.90
22321;DHT22;11328;53.928;18.522;2023-02-13T17:55:56;5.40;99.90
22321;DHT22;11328;53.928;18.522;2023-02-13T17:58:23;5.30;99.90
22321;DHT22;11328;53.928;18.522;2023-02-13T18:00:51;5.30;99.90
22321;DHT22;11328;53.928;18.522;2023-02-13T18:03:19;5.20;99.90
22321;DHT22;11328;53.928;18.522;2023-02-13T18:05:50;5.10;99.90
22321;DHT22;11328;53.928;18.522;2023-02-13T18:08:17;5.10;99.90
22321;DHT22;11328;53.928;18.522;2023-02-13T18:10:46;5.20;99.90
22321;DHT22;11328;53.928;18.522;2023-02-13T18:13:13;5.20;99.90
22321;DHT22;11328;53.928;18.522;2023-02-13T18:28:24;5.10;99.90
22321;DHT22;11328;53.928;18.522;2023-02-13T18:30:51;5.60;99.90
22321;DHT22;11328;53.928;18.522;2023-02-13T18:33:18;5.50;99.90
22321;DHT22;11328;53.928;18.522;2023-02-13T18:35:45;5.40;99.90
22321;DHT22;11328;53.928;18.522;2023-02-13T18:38:12;5.30;99.90
22321;DHT22;11328;53.928;18.522;2023-02-13T18:40:38;5.20;99.90
22321;DHT22;11328;53.928;18.522;2023-02-13T18:43:05;5.10;99.90
22321;DHT22;11328;53.928;18.522;2023-02-13T18:45:35;5.00;99.90
22321;DHT22;11328;53.928;18.522;2023-02-13T18:48:02;5.00;99.90
22321;DHT22;11328;53.928;18.522;2023-02-13T18:50:29;5.00;99.90
22321;DHT22;11328;53.928;18.522;2023-02-13T18:52:56;5.00;99.90
22321;DHT22;11328;53.928;18.522;2023-02-13T18:55:23;4.90;99.90
22321;DHT22;11328;53.928;18.522;2023-02-13T18:57:53;4.90;99.90
22321;DHT22;11328;53.928;18.522;2023-02-13T19:00:20;4.80;99.90
22321;DHT22;11328;53.928;18.522;2023-02-13T19:02:56;4.80;99.90
22321;DHT22;11328;53.928;18.522;2023-02-13T19:05:30;4.80;99.90
22321;DHT22;11328;53.928;18.522;2023-02-13T19:07:57;4.80;99.90
22321;DHT22;11328;53.928;18.522;2023-02-13T19:10:26;4.80;99.90
22321;DHT22;11328;53.928;18.522;2023-02-13T19:12:53;4.70;99.90
22321;DHT22;11328;53.928;18.522;2023-02-13T19:15:20;4.70;99.90
22321;DHT22;11328;53.928;18.522;2023-02-13T19:17:47;4.70;99.90
22321;DHT22;11328;53.928;18.522;2023-02-13T19:20:14;4.70;99.90
22321;DHT22;11328;53.928;18.522;2023-02-13T19:22:42;4.60;99.90
22321;DHT22;11328;53.928;18.522;2023-02-13T19:25:09;4.60;99.90
22321;DHT22;11328;53.928;18.522;2023-02-13T19:27:36;4.60;99.90